x

West Oregon - 275nm West Of Coos Bay, Or (46002) Wave Buoy

6:50pm - Tue 30th Jun 2015 All times are UTC.

  • Sig Wave height 4.6ft
  • Peak Period 5s
  • Average Period 5s
  • Wind
    16mph, 20mph gusts
  • Sea Temp 64°f
  • Air Temp 63°f
  • Sea Pressure 1024.1mb

More Historic Weather Station data

Upgrade to MSW Pro to gain access to the past 30 days of data for over 8000 Wavebouys and Weather Stations around the globe.

Join Pro

Comparision Forecast

View Surf forecast
   
Tue 06/30 6:50pm 4.5ft 5s 5s 16 20 mph 1024.1mb 64f 63f
5:50pm 4.5ft 5s 5s 16 22 mph 1023.9mb 64f 62f
4:50pm 4.5ft 15s 5s 13 20 mph 1024mb 63f 61f
3:50pm 3.5ft 15s 5s 18 22 mph 1023.5mb 63f 61f
2:50pm 4ft 14s 5s 16 20 mph 1023.3mb 63f 61f
1:50pm 3.5ft 15s 5s 11 16 mph 1023.3mb 63f 61f
12:50pm 3.5ft 14s 5s 13 18 mph 1022.8mb 64f 61f
11:50am 3.5ft 14s 6s 13 18 mph 1022.5mb 64f 61f
10:50am 3.5ft 14s 6s 11 13 mph 1022.6mb 63f 61f
9:50am 4ft 15s 6s 11 13 mph 1022.6mb 64f 61f
8:50am 3.5ft 15s 6s 9 11 mph 1022.6mb 64f 61f
7:50am 4.5ft 15s 6s 9 11 mph 1022.4mb 64f 61f
6:50am 4ft 15s 6s 7 9 mph 1022.5mb 64f 61f
5:50am 3.5ft 14s 5s 11 13 mph 1022.3mb 64f 62f
4:50am 4ft 15s 6s 11 13 mph 1021.7mb 64f 62f
3:50am 3.5ft 15s 6s 11 13 mph 1021.3mb 64f 62f
2:50am 4ft 15s 6s 11 16 mph 1020.9mb 64f 63f
1:50am 4.5ft 15s 6s 11 13 mph 1020.7mb 64f 63f
12:50am 4.5ft 15s 6s 11 13 mph 1020.8mb 64f 63f
Mon 06/29 11:50pm 4.5ft 15s 6s 11 13 mph 1020.9mb 64f 63f
10:50pm 4.5ft 15s 6s 9 11 mph 1020.9mb 64f 62f
9:50pm 4.5ft 15s 6s 11 13 mph 1020.6mb 63f 62f
8:50pm 4.5ft 15s 6s 11 13 mph 1020.7mb 63f 62f
7:50pm 4.5ft 15s 6s 11 13 mph 1020.3mb 63f 63f
6:50pm 4.5ft 6s 6s 11 13 mph 1019.9mb 63f 63f
5:50pm 4.5ft 15s 6s 11 13 mph 1019.5mb 63f 63f
4:50pm 4.5ft 16s 6s 11 16 mph 1019.1mb 63f 63f
3:50pm 4.5ft 15s 6s 11 13 mph 1018.7mb 63f 63f
2:50pm 4ft 15s 5s 11 16 mph 1018.3mb 63f 63f
1:50pm 4.5ft 16s 6s 9 13 mph 1018.2mb 63f 63f
12:50pm 4.5ft 15s 6s 11 16 mph 1017.8mb 63f 63f
11:50am 4.5ft 16s 5s 11 16 mph 1017.3mb 63f 63f
10:50am 4.5ft 16s 5s 11 13 mph 1017mb 63f 63f
9:50am 4.5ft 16s 5s 11 16 mph 1016.8mb 63f 63f
8:50am 5ft 16s 5s 13 16 mph 1016.5mb 63f 63f
7:50am 5ft 16s 5s 13 20 mph 1016.1mb 63f 63f
6:50am 4.5ft 16s 5s 13 16 mph 1016.3mb 63f 63f
5:50am 5ft 16s 6s 13 20 mph 1016.1mb 63f 64f
4:50am 5ft 13s 6s 13 16 mph 1015.4mb 64f 63f
3:50am 5ft 16s 6s 11 16 mph 1015.1mb 64f 63f
2:50am 5ft 9s 6s 11 16 mph 1015mb 64f 63f
1:50am 5ft 16s 6s 13 16 mph 1014.8mb 64f 64f
12:50am 5ft 16s 6s 13 16 mph 1014.9mb 64f 64f
Sun 06/28 11:50pm 4.5ft 7s 5s 13 16 mph 1015.1mb 64f 64f
10:50pm 4.5ft 16s 6s 13 18 mph 1015.1mb 64f 64f
9:50pm 4.5ft 16s 6s 13 18 mph 1015.2mb 64f 63f
8:50pm 4.5ft 8s 6s 11 13 mph 1015.4mb 63f 63f
7:50pm 5ft 9s 6s 11 16 mph 1015.5mb 63f 63f
6:50pm 5ft 7s 6s 13 16 mph 1015.5mb 63f 63f
5:50pm 5.5ft 6s 5s 13 18 mph 1015.2mb 63f 63f
4:50pm 5ft 9s 6s 13 18 mph 1015.1mb 63f 63f
3:50pm 5ft 9s 6s 13 18 mph 1015.4mb 63f 63f
2:50pm 5ft 9s 6s 13 16 mph 1015.3mb 63f 63f
1:50pm 5ft 6s 5s 11 16 mph 1015.3mb 63f 63f
12:50pm 5.5ft 6s 5s 13 20 mph 1015mb 63f 63f
11:50am 5ft 10s 6s 18 22 mph 1014.6mb 63f 63f
10:50am 6ft 6s 6s 16 22 mph 1014.9mb 63f 63f
9:50am 6ft 6s 6s 18 22 mph 1015.4mb 63f 63f
8:50am 6ft 8s 6s 16 20 mph 1015.8mb 63f 63f
7:50am 5.5ft 8s 6s 16 20 mph 1016.4mb 63f 63f
6:50am 5.5ft 8s 6s 13 18 mph 1016.4mb 63f 63f
5:50am 5.5ft 8s 6s 16 20 mph 1016.5mb 63f 63f
4:50am 5ft 7s 6s 13 20 mph 1016.6mb 63f 63f
3:50am 5.5ft 7s 6s 11 16 mph 1016.8mb 63f 63f
2:50am 5ft 6s 6s 13 16 mph 1016.6mb 63f 64f
1:50am 5ft 8s 6s 11 13 mph 1016.9mb 63f 64f
12:50am 5ft 8s 6s 11 16 mph 1017.1mb 63f 63f
Sat 06/27 11:50pm 5ft 8s 6s 13 18 mph 1017.3mb 63f 63f
10:50pm 5ft 7s 5s 16 18 mph 1017.8mb 63f 63f
9:50pm 5ft 8s 6s 16 20 mph 1018.2mb 63f 63f
8:50pm 5.5ft 8s 6s 13 20 mph 1018.5mb 63f 63f
7:50pm 5ft 7s 6s 13 18 mph 1018.9mb 63f 62f
6:50pm 5ft 7s 6s 13 18 mph 1018.8mb 63f 62f
5:50pm 5ft 8s 6s 16 18 mph 1018.9mb 63f 62f
4:50pm 5ft 7s 6s 13 18 mph 1019mb 63f 62f
3:50pm 5ft 8s 6s 16 20 mph 1018.9mb 63f 62f
2:50pm 5.5ft 8s 6s 16 20 mph 1018.8mb 63f 62f
1:50pm 5.5ft 8s 6s 13 18 mph 1018.7mb 63f 62f
12:50pm 5.5ft 7s 6s 13 18 mph 1018.7mb 63f 62f
11:50am 5.5ft 7s 6s 13 20 mph 1018.9mb 63f 62f
10:50am 6ft 7s 6s 13 16 mph 1019.3mb 63f 62f
9:50am 5.5ft 7s 6s 13 16 mph 1019.5mb 63f 62f
8:50am 5ft 9s 5s 11 13 mph 1020.1mb 63f 62f
7:50am 5.5ft 7s 5s 13 18 mph 1019.6mb 63f 62f
6:50am 5ft 7s 6s 16 20 mph 1019.7mb 63f 62f
5:50am 5ft 8s 6s 13 18 mph 1020.1mb 63f 62f
4:50am 5ft 8s 5s 13 18 mph 1020.2mb 63f 62f
3:50am 5ft 9s 5s 16 20 mph 1020.1mb 63f 63f
2:50am 5ft 9s 6s 16 20 mph 1020.4mb 63f 63f
1:50am 5ft 6s 5s 18 22 mph 1020.4mb 63f 63f
12:50am 4.5ft 9s 5s 16 20 mph 1020.8mb 63f 63f
Fri 06/26 11:50pm 4.5ft 9s 5s 16 20 mph 1021.1mb 63f 63f
10:50pm 4.5ft 9s 6s 16 20 mph 1021.5mb 63f 62f
9:50pm 4.5ft 10s 6s 16 18 mph 1021.9mb 63f 62f
8:50pm 4.5ft 9s 6s 11 16 mph 1022.8mb 63f 62f
7:50pm 4.5ft 9s 6s 11 13 mph 1022.9mb 63f 62f